createdAt,value
2018-08-19T00:00:00.940Z,17.56
2018-08-19T00:01:00.924Z,17.56
2018-08-19T00:02:00.892Z,17.66
2018-08-19T00:03:00.879Z,17.63
2018-08-19T00:04:00.866Z,17.70
2018-08-19T00:05:00.853Z,17.72
2018-08-19T00:06:00.852Z,17.86
2018-08-19T00:07:00.825Z,17.82
2018-08-19T00:08:00.815Z,17.81
2018-08-19T00:09:00.797Z,17.86
2018-08-19T00:10:00.780Z,17.89
2018-08-19T00:11:00.784Z,17.82
2018-08-19T00:12:00.756Z,17.90
2018-08-19T00:13:00.741Z,17.86
2018-08-19T00:14:00.750Z,17.95
2018-08-19T00:15:00.710Z,18.00
2018-08-19T00:16:00.700Z,18.00
2018-08-19T00:17:00.676Z,17.93
2018-08-19T00:18:00.668Z,17.96
2018-08-19T00:19:00.678Z,17.97
2018-08-19T00:20:00.640Z,17.99
2018-08-19T00:21:00.625Z,17.95
2018-08-19T00:22:00.624Z,17.99
2018-08-19T00:23:00.592Z,17.89
2018-08-19T00:24:00.578Z,17.77
2018-08-19T00:25:00.566Z,17.92
2018-08-19T00:26:00.566Z,17.84
2018-08-19T00:27:00.538Z,17.87
2018-08-19T00:28:00.525Z,17.86
2018-08-19T00:29:00.510Z,17.86
2018-08-19T00:30:00.497Z,17.87
2018-08-19T00:31:00.498Z,17.78
2018-08-19T00:32:00.473Z,17.89
2018-08-19T00:33:00.453Z,17.79
2018-08-19T00:34:00.436Z,17.82
2018-08-19T00:35:00.422Z,17.92
2018-08-19T00:36:00.410Z,17.97
2018-08-19T00:37:00.459Z,17.82
2018-08-19T00:38:00.393Z,17.84
2018-08-19T00:39:00.362Z,17.77
2018-08-19T00:40:01.000Z,17.87
2018-08-19T00:41:00.346Z,17.79
2018-08-19T00:42:00.325Z,17.77
2018-08-19T00:43:00.305Z,17.78
2018-08-19T00:44:00.311Z,17.84
2018-08-19T00:45:00.281Z,17.84
2018-08-19T00:46:00.262Z,17.79
2018-08-19T00:47:00.252Z,17.77
2018-08-19T00:48:00.236Z,17.64
2018-08-19T00:49:00.235Z,17.64
2018-08-19T00:50:00.207Z,17.54
2018-08-19T00:51:00.195Z,17.36
2018-08-19T00:52:00.181Z,17.28
2018-08-19T00:53:00.159Z,17.25
2018-08-19T00:54:00.163Z,17.26
2018-08-19T00:55:00.136Z,17.31
2018-08-19T00:56:00.120Z,17.38
2018-08-19T00:57:00.107Z,17.40
2018-08-19T00:58:00.091Z,17.55
2018-08-19T00:59:00.092Z,17.56
2018-08-19T01:00:00.065Z,17.58
2018-08-19T01:01:00.051Z,17.40
2018-08-19T01:02:00.031Z,17.41
2018-08-19T01:03:00.021Z,17.22
2018-08-19T01:04:00.018Z,17.16
2018-08-19T01:04:59.992Z,17.14
2018-08-19T01:05:59.979Z,17.11
2018-08-19T01:06:59.961Z,17.01
2018-08-19T01:07:59.947Z,17.01
2018-08-19T01:08:59.948Z,16.98
2018-08-19T01:09:59.918Z,16.91
2018-08-19T01:10:59.907Z,16.96
2018-08-19T01:11:59.886Z,16.88
2018-08-19T01:12:59.873Z,16.89
2018-08-19T01:13:59.854Z,16.88
2018-08-19T01:14:59.854Z,16.96
2018-08-19T01:15:59.845Z,16.97
2018-08-19T01:16:59.814Z,16.94
2018-08-19T01:17:59.798Z,16.96
2018-08-19T01:18:59.789Z,16.94
2018-08-19T01:19:59.775Z,16.88
2018-08-19T01:20:59.773Z,16.91
2018-08-19T01:21:59.743Z,16.83
2018-08-19T01:22:59.730Z,16.73
2018-08-19T01:23:59.714Z,16.78
2018-08-19T01:24:59.701Z,16.73
2018-08-19T01:25:59.704Z,16.71
2018-08-19T01:26:59.670Z,16.76
2018-08-19T01:27:59.657Z,16.67
2018-08-19T01:28:59.642Z,16.76
2018-08-19T01:29:59.626Z,16.68
2018-08-19T01:30:59.615Z,16.61
2018-08-19T01:31:59.615Z,16.71
2018-08-19T01:32:59.585Z,16.66
2018-08-19T01:33:59.568Z,16.63
2018-08-19T01:34:59.570Z,16.53
2018-08-19T01:35:59.540Z,16.67
2018-08-19T01:36:59.539Z,16.71
2018-08-19T01:37:59.511Z,16.64
2018-08-19T01:38:59.497Z,16.61
2018-08-19T01:39:59.484Z,16.64
2018-08-19T01:40:59.470Z,16.70
2018-08-19T01:41:59.468Z,16.66
2018-08-19T01:42:59.450Z,16.73
2018-08-19T01:43:59.422Z,16.70
2018-08-19T01:44:59.406Z,16.66
2018-08-19T01:45:59.395Z,16.67
2018-08-19T01:46:59.379Z,16.60
2018-08-19T01:47:59.380Z,16.60
2018-08-19T01:48:59.368Z,16.61
2018-08-19T01:49:59.337Z,16.57
2018-08-19T01:50:59.338Z,16.58
2018-08-19T01:51:59.306Z,16.58
2018-08-19T01:52:59.296Z,16.58
2018-08-19T01:53:59.291Z,16.61
2018-08-19T01:54:59.266Z,16.61
2018-08-19T01:55:59.251Z,16.61
2018-08-19T01:56:59.236Z,16.58
2018-08-19T01:57:59.225Z,16.58
2018-08-19T01:58:59.236Z,16.58
2018-08-19T01:59:59.193Z,16.64
2018-08-19T02:00:59.183Z,16.52
2018-08-19T02:01:59.164Z,16.61
2018-08-19T02:02:59.152Z,16.61
2018-08-19T02:03:59.133Z,16.61
2018-08-19T02:05:20.130Z,16.58
2018-08-19T02:05:59.105Z,16.49
2018-08-19T02:06:59.093Z,16.50
2018-08-19T02:07:59.082Z,16.46
2018-08-19T02:08:59.061Z,16.48
2018-08-19T02:09:59.062Z,16.48
2018-08-19T02:10:59.033Z,16.56
2018-08-19T02:11:59.018Z,16.57
2018-08-19T02:12:59.001Z,16.66
2018-08-19T02:13:58.988Z,16.63
2018-08-19T02:14:58.975Z,16.71
2018-08-19T02:15:58.975Z,16.78
2018-08-19T02:16:58.942Z,16.67
2018-08-19T02:17:58.930Z,16.68
2018-08-19T02:18:58.914Z,16.67
2018-08-19T02:19:58.901Z,16.63
2018-08-19T02:20:58.897Z,16.67
2018-08-19T02:21:58.871Z,16.67
2018-08-19T02:22:58.858Z,16.60
2018-08-19T02:23:58.838Z,16.60
2018-08-19T02:24:58.827Z,16.53
2018-08-19T02:25:58.825Z,16.53
2018-08-19T02:26:58.793Z,16.52
2018-08-19T02:27:58.782Z,16.45
2018-08-19T02:28:58.784Z,16.42
2018-08-19T02:29:58.766Z,16.34
2018-08-19T02:30:58.753Z,16.45
2018-08-19T02:31:58.727Z,16.38
2018-08-19T02:32:58.707Z,16.43
2018-08-19T02:33:58.710Z,16.50
2018-08-19T02:34:58.678Z,16.45
2018-08-19T02:35:58.678Z,16.43
2018-08-19T02:36:58.652Z,16.46
2018-08-19T02:37:58.634Z,16.41
2018-08-19T02:38:58.633Z,16.48
2018-08-19T02:39:58.605Z,16.45
2018-08-19T02:40:58.607Z,16.35
2018-08-19T02:41:58.572Z,16.35
2018-08-19T02:42:58.562Z,16.42
2018-08-19T02:43:58.560Z,16.31
2018-08-19T02:44:58.528Z,16.28
2018-08-19T02:45:58.517Z,16.27
2018-08-19T02:46:58.507Z,16.27
2018-08-19T02:47:58.485Z,16.20
2018-08-19T02:48:58.484Z,16.25
2018-08-19T02:49:58.460Z,16.28
2018-08-19T02:50:58.435Z,16.23
2018-08-19T02:51:58.425Z,16.21
2018-08-19T02:52:58.412Z,16.27
2018-08-19T02:53:58.409Z,16.24
2018-08-19T02:54:58.382Z,16.21
2018-08-19T02:55:58.380Z,16.17
2018-08-19T02:56:58.352Z,16.14
2018-08-19T02:57:58.337Z,16.08
2018-08-19T02:58:58.319Z,16.02
2018-08-19T02:59:58.301Z,16.00
2018-08-19T03:00:58.301Z,16.01
2018-08-19T03:01:58.275Z,16.01
2018-08-19T03:02:58.262Z,16.00
2018-08-19T03:03:58.246Z,16.07
2018-08-19T03:04:58.228Z,15.96
2018-08-19T03:05:58.227Z,16.05
2018-08-19T03:06:58.200Z,16.05
2018-08-19T03:07:58.185Z,16.00
2018-08-19T03:08:58.167Z,16.01
2018-08-19T03:09:58.155Z,15.96
2018-08-19T03:10:58.150Z,15.96
2018-08-19T03:11:58.122Z,15.92
2018-08-19T03:12:58.105Z,15.93
2018-08-19T03:13:58.092Z,15.94
2018-08-19T03:14:58.111Z,15.92
2018-08-19T03:15:58.082Z,15.75
2018-08-19T03:16:58.051Z,15.78
2018-08-19T03:17:58.051Z,15.86
2018-08-19T03:18:58.018Z,15.71
2018-08-19T03:19:57.999Z,15.80
2018-08-19T03:20:57.985Z,15.82
2018-08-19T03:21:57.984Z,15.80
2018-08-19T03:22:57.958Z,15.76
2018-08-19T03:23:57.958Z,15.80
2018-08-19T03:24:57.928Z,15.82
2018-08-19T03:25:57.915Z,15.78
2018-08-19T03:26:57.899Z,15.69
2018-08-19T03:27:57.899Z,15.80
2018-08-19T03:28:57.866Z,15.84
2018-08-19T03:29:57.852Z,15.86
2018-08-19T03:30:57.837Z,15.83
2018-08-19T03:31:57.836Z,15.80
2018-08-19T03:32:57.809Z,15.83
2018-08-19T03:33:57.799Z,15.82
2018-08-19T03:34:57.794Z,15.84
2018-08-19T03:35:57.762Z,15.72
2018-08-19T03:36:57.761Z,15.78
2018-08-19T03:37:57.851Z,15.72
2018-08-19T03:38:57.717Z,15.76
2018-08-19T03:39:57.704Z,15.68
2018-08-19T03:40:57.685Z,15.72
2018-08-19T03:41:57.669Z,15.72
2018-08-19T03:42:57.674Z,15.68
2018-08-19T03:43:57.654Z,15.76
2018-08-19T03:44:57.623Z,15.86
2018-08-19T03:45:57.611Z,15.82
2018-08-19T03:46:57.595Z,15.75
2018-08-19T03:47:57.580Z,15.71
2018-08-19T03:48:57.581Z,15.68
2018-08-19T03:49:57.564Z,15.75
2018-08-19T03:50:57.532Z,15.67
2018-08-19T03:51:57.515Z,15.76
2018-08-19T03:52:57.498Z,15.72
2018-08-19T03:53:57.483Z,15.68
2018-08-19T03:54:57.484Z,15.72
2018-08-19T03:55:57.467Z,15.72
2018-08-19T03:56:57.443Z,15.67
2018-08-19T03:57:57.429Z,15.86
2018-08-19T03:58:57.412Z,15.78
2018-08-19T03:59:57.412Z,15.82
2018-08-19T04:00:57.384Z,15.75
2018-08-19T04:01:57.362Z,15.68
2018-08-19T04:02:57.352Z,15.69
2018-08-19T04:03:57.337Z,15.80
2018-08-19T04:04:57.334Z,15.67
2018-08-19T04:05:57.307Z,15.68
2018-08-19T04:06:57.289Z,15.78
2018-08-19T04:07:57.271Z,15.72
2018-08-19T04:08:57.259Z,15.62
2018-08-19T04:09:57.259Z,15.69
2018-08-19T04:10:57.231Z,15.65
2018-08-19T04:11:57.212Z,15.62
2018-08-19T04:12:57.196Z,15.60
2018-08-19T04:13:57.201Z,15.56
2018-08-19T04:14:57.167Z,15.54
2018-08-19T04:15:57.151Z,15.57
2018-08-19T04:16:57.134Z,15.56
2018-08-19T04:17:57.123Z,15.60
2018-08-19T04:18:57.105Z,15.57
2018-08-19T04:19:57.109Z,15.54
2018-08-19T04:20:57.072Z,15.72
2018-08-19T04:21:57.061Z,15.82
2018-08-19T04:22:57.046Z,15.89
2018-08-19T04:23:57.033Z,15.92
2018-08-19T04:24:57.028Z,16.02
2018-08-19T04:25:56.993Z,16.01
2018-08-19T04:26:56.986Z,15.97
2018-08-19T04:27:56.982Z,16.01
2018-08-19T04:28:56.949Z,16.02
2018-08-19T04:29:56.933Z,16.02
2018-08-19T04:30:56.920Z,16.02
2018-08-19T04:31:56.907Z,15.92
2018-08-19T04:32:56.887Z,15.93
2018-08-19T04:33:56.887Z,15.90
2018-08-19T04:34:56.856Z,15.89
2018-08-19T04:35:56.842Z,15.94
2018-08-19T04:36:56.826Z,16.04
2018-08-19T04:37:56.808Z,16.20
2018-08-19T04:38:56.812Z,16.27
2018-08-19T04:39:56.781Z,16.25
2018-08-19T04:40:56.767Z,16.34
2018-08-19T04:41:56.749Z,16.30
2018-08-19T04:42:56.730Z,16.49
2018-08-19T04:43:56.734Z,16.43
2018-08-19T04:44:56.702Z,16.42
2018-08-19T04:45:56.688Z,16.33
2018-08-19T04:46:56.673Z,16.35
2018-08-19T04:47:56.656Z,16.38
2018-08-19T04:48:56.640Z,16.38
2018-08-19T04:49:56.641Z,16.46
2018-08-19T04:50:56.610Z,16.34
2018-08-19T04:51:56.613Z,16.34
2018-08-19T04:52:56.579Z,16.45
2018-08-19T04:53:56.564Z,16.41
2018-08-19T04:54:56.552Z,16.41
2018-08-19T04:55:56.533Z,16.34
2018-08-19T04:56:56.516Z,16.27
2018-08-19T04:57:56.517Z,16.31
2018-08-19T04:58:56.487Z,16.31
2018-08-19T04:59:56.473Z,16.17
2018-08-19T05:00:56.459Z,16.21
2018-08-19T05:01:56.457Z,16.24
2018-08-19T05:02:56.428Z,16.23
2018-08-19T05:03:56.412Z,16.27
2018-08-19T05:04:56.397Z,16.24
2018-08-19T05:05:56.395Z,16.20
2018-08-19T05:06:56.380Z,16.20
2018-08-19T05:07:56.402Z,16.23
2018-08-19T05:08:56.338Z,16.12
2018-08-19T05:09:56.319Z,16.14
2018-08-19T05:10:56.303Z,16.27
2018-08-19T05:11:56.306Z,16.30
2018-08-19T05:12:56.272Z,16.27
2018-08-19T05:13:56.258Z,16.23
2018-08-19T05:14:56.245Z,16.34
2018-08-19T05:15:56.224Z,16.23
2018-08-19T05:16:56.213Z,16.27
2018-08-19T05:17:56.211Z,16.33
2018-08-19T05:18:56.181Z,16.28
2018-08-19T05:19:56.165Z,16.39
2018-08-19T05:20:56.150Z,16.31
2018-08-19T05:21:56.131Z,16.46
2018-08-19T05:22:56.132Z,16.48
2018-08-19T05:23:56.108Z,16.34
2018-08-19T05:24:56.088Z,16.49
2018-08-19T05:25:56.075Z,16.48
2018-08-19T05:26:56.061Z,16.45
2018-08-19T05:27:56.054Z,16.52
2018-08-19T05:28:56.047Z,16.50
2018-08-19T05:29:56.012Z,16.61
2018-08-19T05:30:55.996Z,16.64
2018-08-19T05:31:55.989Z,16.61
2018-08-19T05:32:55.967Z,16.60
2018-08-19T05:33:55.961Z,16.63
2018-08-19T05:34:55.936Z,16.70
2018-08-19T05:35:55.921Z,16.75
2018-08-19T05:36:55.906Z,16.70
2018-08-19T05:37:55.902Z,16.73
2018-08-19T05:38:55.890Z,16.88
2018-08-19T05:39:55.861Z,16.96
2018-08-19T05:40:55.848Z,16.81
2018-08-19T05:41:55.830Z,16.96
2018-08-19T05:42:55.812Z,16.96
2018-08-19T05:43:55.820Z,16.97
2018-08-19T05:44:55.789Z,17.07
2018-08-19T05:45:55.769Z,17.08
2018-08-19T05:46:55.752Z,17.12
2018-08-19T05:47:55.741Z,17.14
2018-08-19T05:48:55.740Z,17.14
2018-08-19T05:49:55.709Z,17.21
2018-08-19T05:50:55.709Z,17.25
2018-08-19T05:51:55.683Z,17.30
2018-08-19T05:52:55.665Z,17.41
2018-08-19T05:53:55.661Z,17.36
2018-08-19T05:54:55.654Z,17.44
2018-08-19T05:55:55.621Z,17.41
2018-08-19T05:56:55.606Z,17.55
2018-08-19T05:57:55.591Z,17.54
2018-08-19T05:58:55.589Z,17.55
2018-08-19T05:59:55.561Z,17.56
2018-08-19T06:00:55.561Z,17.55
2018-08-19T06:01:55.529Z,17.63
2018-08-19T06:02:55.515Z,17.63
2018-08-19T06:03:55.503Z,17.64
2018-08-19T06:04:55.484Z,17.63
2018-08-19T06:05:55.489Z,17.77
2018-08-19T06:06:55.455Z,17.82
2018-08-19T06:07:55.447Z,17.77
2018-08-19T06:08:55.427Z,17.82
2018-08-19T06:09:55.416Z,17.87
2018-08-19T06:10:55.412Z,17.87
2018-08-19T06:11:55.385Z,17.99
2018-08-19T06:12:55.368Z,18.00
2018-08-19T06:13:55.358Z,18.02
2018-08-19T06:14:55.339Z,18.03
2018-08-19T06:15:55.445Z,18.21
2018-08-19T06:16:55.310Z,18.21
2018-08-19T06:17:55.293Z,18.20
2018-08-19T06:18:55.289Z,18.33
2018-08-19T06:19:55.269Z,18.41
2018-08-19T06:20:55.271Z,18.54
2018-08-19T06:21:55.296Z,18.51
2018-08-19T06:22:55.224Z,18.55
2018-08-19T06:23:55.210Z,18.51
2018-08-19T06:24:55.194Z,18.57
2018-08-19T06:25:55.196Z,18.81
2018-08-19T06:26:55.164Z,18.70
2018-08-19T06:27:55.150Z,18.78
2018-08-19T06:28:55.135Z,18.94
2018-08-19T06:29:55.117Z,19.00
2018-08-19T06:30:55.121Z,19.02
2018-08-19T06:31:55.089Z,19.11
2018-08-19T06:32:55.076Z,19.10
2018-08-19T06:33:55.063Z,19.22
2018-08-19T06:34:55.179Z,19.22
2018-08-19T06:35:55.057Z,19.31
2018-08-19T06:36:55.023Z,19.28
2018-08-19T06:37:55.010Z,19.36
2018-08-19T06:38:54.999Z,19.26
2018-08-19T06:39:54.978Z,19.46
2018-08-19T06:40:54.985Z,19.28
2018-08-19T06:41:54.970Z,19.26
2018-08-19T06:42:54.963Z,19.28
2018-08-19T06:43:54.926Z,19.31
2018-08-19T06:44:54.909Z,19.29
2018-08-19T06:45:54.901Z,19.28
2018-08-19T06:46:54.882Z,19.33
2018-08-19T06:47:54.872Z,19.32
2018-08-19T06:48:54.866Z,19.29
2018-08-19T06:49:54.843Z,19.29
2018-08-19T06:50:54.830Z,19.33
2018-08-19T06:51:54.818Z,19.48
2018-08-19T06:52:54.826Z,19.55
2018-08-19T06:53:54.803Z,19.55
2018-08-19T06:54:54.775Z,19.54
2018-08-19T06:55:54.760Z,19.54
2018-08-19T06:56:54.750Z,19.51
2018-08-19T06:57:54.734Z,19.61
2018-08-19T06:58:54.735Z,19.77
2018-08-19T06:59:54.705Z,19.68
2018-08-19T07:00:54.692Z,19.48
2018-08-19T07:01:54.674Z,19.58
2018-08-19T07:02:54.684Z,19.71
2018-08-19T07:04:15.663Z,19.65
2018-08-19T07:04:54.639Z,19.69
2018-08-19T07:05:54.626Z,19.66
2018-08-19T07:06:54.613Z,19.62
2018-08-19T07:07:54.594Z,19.66
2018-08-19T07:08:54.600Z,19.78
2018-08-19T07:09:54.569Z,19.73
2018-08-19T07:10:54.553Z,19.68
2018-08-19T07:11:54.544Z,19.65
2018-08-19T07:12:54.538Z,19.77
2018-08-19T07:13:54.518Z,19.86
2018-08-19T07:14:54.517Z,19.94
2018-08-19T07:15:54.489Z,19.96
2018-08-19T07:16:54.479Z,19.94
2018-08-19T07:17:54.464Z,19.94
2018-08-19T07:18:54.466Z,19.81
2018-08-19T07:19:54.437Z,19.77
2018-08-19T07:20:54.435Z,19.73
2018-08-19T07:21:54.411Z,19.80
2018-08-19T07:22:54.397Z,19.74
2018-08-19T07:23:54.443Z,19.74
2018-08-19T07:24:54.385Z,19.84
2018-08-19T07:25:54.356Z,19.81
2018-08-19T07:26:54.344Z,19.96
2018-08-19T07:27:54.333Z,20.02
2018-08-19T07:28:54.313Z,20.14
2018-08-19T07:29:54.332Z,20.17
2018-08-19T07:30:54.291Z,20.14
2018-08-19T07:31:54.278Z,20.13
2018-08-19T07:32:54.267Z,20.10
2018-08-19T07:33:54.251Z,19.99
2018-08-19T07:34:54.240Z,20.06
2018-08-19T07:35:54.243Z,20.13
2018-08-19T07:36:54.230Z,20.17
2018-08-19T07:37:54.200Z,20.24
2018-08-19T07:38:54.203Z,20.17
2018-08-19T07:39:54.175Z,20.33
2018-08-19T07:40:54.159Z,20.28
2018-08-19T07:41:54.147Z,20.33
2018-08-19T07:42:54.151Z,20.33
2018-08-19T07:43:54.136Z,20.23
2018-08-19T07:44:54.106Z,20.35
2018-08-19T07:45:54.093Z,20.51
2018-08-19T07:46:54.083Z,20.64
2018-08-19T07:47:54.071Z,20.79
2018-08-19T07:48:54.064Z,20.74
2018-08-19T07:49:54.042Z,20.79
2018-08-19T07:50:54.030Z,20.79
2018-08-19T07:51:54.020Z,20.70
2018-08-19T07:52:54.004Z,20.59
2018-08-19T07:53:54.005Z,20.57
2018-08-19T07:54:53.978Z,20.54
2018-08-19T07:55:53.969Z,20.50
2018-08-19T07:56:53.954Z,20.50
2018-08-19T07:57:53.957Z,20.57
2018-08-19T07:58:53.941Z,20.64
2018-08-19T07:59:53.916Z,20.70
2018-08-19T08:00:53.900Z,20.76
2018-08-19T08:01:53.890Z,20.89
2018-08-19T08:02:53.889Z,20.92
2018-08-19T08:03:53.865Z,20.99
2018-08-19T08:04:53.847Z,21.04
2018-08-19T08:05:53.839Z,21.17
2018-08-19T08:06:53.823Z,21.28
2018-08-19T08:07:53.807Z,21.07
2018-08-19T08:08:53.816Z,21.27
2018-08-19T08:09:53.792Z,21.34
2018-08-19T08:10:53.783Z,21.49
2018-08-19T08:11:53.755Z,21.56
2018-08-19T08:12:53.745Z,21.61
2018-08-19T08:13:53.785Z,21.53
2018-08-19T08:14:53.735Z,21.47
2018-08-19T08:15:53.721Z,21.50
2018-08-19T08:16:53.694Z,21.42
2018-08-19T08:17:53.681Z,21.37
2018-08-19T08:18:53.678Z,21.35
2018-08-19T08:19:53.657Z,21.53
2018-08-19T08:20:53.655Z,21.64
2018-08-19T08:21:53.628Z,21.82
2018-08-19T08:22:53.617Z,21.86
2018-08-19T08:23:53.606Z,22.03
2018-08-19T08:24:53.591Z,21.99
2018-08-19T08:25:53.598Z,22.02
2018-08-19T08:26:53.563Z,22.24
2018-08-19T08:27:53.576Z,22.28
2018-08-19T08:28:53.539Z,22.30
2018-08-19T08:29:53.525Z,22.30
2018-08-19T08:30:53.510Z,22.30
2018-08-19T08:31:53.514Z,22.28
2018-08-19T08:32:53.490Z,22.40
2018-08-19T08:33:53.475Z,22.52
2018-08-19T08:34:53.509Z,22.57
2018-08-19T08:35:53.462Z,22.80
2018-08-19T08:36:53.452Z,22.85
2018-08-19T08:37:53.423Z,23.13
2018-08-19T08:38:53.427Z,23.22
2018-08-19T08:39:53.397Z,22.95
2018-08-19T08:40:53.384Z,22.94
2018-08-19T08:41:53.377Z,22.90
2018-08-19T08:43:14.377Z,22.86
2018-08-19T08:43:53.352Z,22.88
2018-08-19T08:44:53.341Z,23.01
2018-08-19T08:45:53.325Z,22.94
2018-08-19T08:46:53.315Z,22.92
2018-08-19T08:47:53.329Z,23.04
2018-08-19T08:48:53.316Z,23.35
2018-08-19T08:49:53.277Z,23.32
2018-08-19T08:50:53.270Z,23.17
2018-08-19T08:51:53.256Z,23.05
2018-08-19T08:52:53.244Z,22.88
2018-08-19T08:53:53.251Z,22.82
2018-08-19T08:54:53.239Z,22.73
2018-08-19T08:55:53.210Z,22.67
2018-08-19T08:56:53.198Z,22.45
2018-08-19T08:57:53.191Z,22.47
2018-08-19T08:58:53.198Z,22.47
2018-08-19T08:59:53.164Z,22.42
2018-08-19T09:00:53.151Z,22.27
2018-08-19T09:01:53.144Z,22.14
2018-08-19T09:02:53.146Z,21.99
2018-08-19T09:03:53.134Z,22.02
2018-08-19T09:04:53.105Z,21.92
2018-08-19T09:05:53.112Z,21.96
2018-08-19T09:06:53.081Z,21.90
2018-08-19T09:07:53.071Z,21.99
2018-08-19T09:08:53.055Z,21.94
2018-08-19T09:09:53.048Z,22.00
2018-08-19T09:10:53.049Z,22.05
2018-08-19T09:11:53.039Z,22.02
2018-08-19T09:12:53.012Z,22.18
2018-08-19T09:13:53.031Z,22.24
2018-08-19T09:14:52.986Z,22.22
2018-08-19T09:15:52.987Z,22.05
2018-08-19T09:16:52.961Z,22.03
2018-08-19T09:17:52.951Z,21.91
2018-08-19T09:18:52.939Z,21.92
2018-08-19T09:19:52.929Z,22.02
2018-08-19T09:20:52.932Z,22.15
2018-08-19T09:21:52.904Z,22.27
2018-08-19T09:22:52.959Z,22.25
2018-08-19T09:23:52.881Z,22.35
2018-08-19T09:24:52.868Z,22.36
2018-08-19T09:25:52.855Z,22.12
2018-08-19T09:26:52.857Z,22.03
2018-08-19T09:27:52.848Z,22.00
2018-08-19T09:28:52.820Z,21.92
2018-08-19T09:29:52.808Z,22.03
2018-08-19T09:30:52.792Z,21.99
2018-08-19T09:31:52.803Z,22.05
2018-08-19T09:32:52.816Z,22.12
2018-08-19T09:33:52.765Z,22.05
2018-08-19T09:34:52.748Z,22.06
2018-08-19T09:35:52.740Z,22.14
2018-08-19T09:36:52.724Z,22.36
2018-08-19T09:37:52.734Z,22.57
2018-08-19T09:38:52.719Z,22.72
2018-08-19T09:39:52.687Z,22.64
2018-08-19T09:40:52.756Z,22.68
2018-08-19T09:41:52.667Z,22.68
2018-08-19T09:42:52.657Z,22.67
2018-08-19T09:43:52.658Z,22.88
2018-08-19T09:44:52.632Z,22.70
2018-08-19T09:45:52.619Z,22.65
2018-08-19T09:46:52.609Z,22.77
2018-08-19T09:47:52.734Z,22.91
2018-08-19T09:48:52.602Z,23.01
2018-08-19T09:49:52.579Z,22.98
2018-08-19T09:50:52.563Z,22.88
2018-08-19T09:51:52.548Z,22.73
2018-08-19T09:52:52.540Z,22.61
2018-08-19T09:53:52.531Z,22.68
2018-08-19T09:54:52.544Z,22.70
2018-08-19T09:55:52.508Z,22.65
2018-08-19T09:56:52.497Z,22.65
2018-08-19T09:57:52.485Z,22.64
2018-08-19T09:58:52.473Z,22.57
2018-08-19T09:59:52.474Z,22.57
2018-08-19T10:00:52.450Z,22.68
2018-08-19T10:01:52.441Z,22.65
2018-08-19T10:02:52.428Z,22.79
2018-08-19T10:03:52.417Z,22.91
2018-08-19T10:04:52.436Z,22.91
2018-08-19T10:05:52.395Z,22.77
2018-08-19T10:06:52.385Z,22.60
2018-08-19T10:07:52.408Z,22.67
2018-08-19T10:08:52.362Z,22.97
2018-08-19T10:09:52.366Z,23.19
2018-08-19T10:10:52.342Z,23.10
2018-08-19T10:11:52.331Z,23.16
2018-08-19T10:12:52.316Z,23.13
2018-08-19T10:13:52.307Z,23.38
2018-08-19T10:14:52.298Z,24.27
2018-08-19T10:15:52.297Z,24.24
2018-08-19T10:16:52.273Z,24.10
2018-08-19T10:17:52.284Z,24.05
2018-08-19T10:18:52.251Z,24.08
2018-08-19T10:19:52.242Z,23.95
2018-08-19T10:20:52.252Z,23.63
2018-08-19T10:21:52.223Z,24.03
2018-08-19T10:22:52.221Z,24.27
2018-08-19T10:23:52.200Z,24.90
2018-08-19T10:24:52.189Z,25.73
2018-08-19T10:26:13.191Z,26.39
2018-08-19T10:26:52.167Z,27.09
2018-08-19T10:27:52.180Z,27.40
2018-08-19T10:28:52.154Z,27.63
2018-08-19T10:29:52.143Z,27.67
2018-08-19T10:30:52.136Z,25.94
2018-08-19T10:31:52.147Z,25.00
2018-08-19T10:32:52.118Z,24.95
2018-08-19T10:33:52.111Z,24.98
2018-08-19T10:34:52.095Z,26.02
2018-08-19T10:35:52.093Z,25.90
2018-08-19T10:36:52.080Z,25.64
2018-08-19T10:37:52.095Z,25.76
2018-08-19T10:38:52.083Z,25.69
2018-08-19T10:39:52.064Z,25.02
2018-08-19T10:40:52.060Z,25.60
2018-08-19T10:41:52.046Z,26.29
2018-08-19T10:42:52.036Z,26.36
2018-08-19T10:43:52.047Z,26.10
2018-08-19T10:44:52.026Z,25.98
2018-08-19T10:45:52.017Z,25.98
2018-08-19T10:46:52.008Z,26.09
2018-08-19T10:47:52.006Z,26.76
2018-08-19T10:48:52.000Z,26.89
2018-08-19T10:49:52.006Z,26.88
2018-08-19T10:50:51.981Z,26.35
2018-08-19T10:51:51.981Z,26.45
2018-08-19T10:52:51.987Z,26.55
2018-08-19T10:53:51.968Z,27.12
2018-08-19T10:54:51.961Z,27.46
2018-08-19T10:55:51.957Z,27.70
2018-08-19T10:56:51.949Z,27.88
2018-08-19T10:57:51.956Z,27.85
2018-08-19T10:58:51.939Z,27.50
2018-08-19T10:59:51.962Z,26.57
2018-08-19T11:00:51.927Z,25.67
2018-08-19T11:01:51.923Z,25.27
2018-08-19T11:02:51.928Z,25.24
2018-08-19T11:03:51.912Z,25.92
2018-08-19T11:04:51.904Z,26.47
2018-08-19T11:05:51.896Z,27.03
2018-08-19T11:06:51.892Z,27.22
2018-08-19T11:07:51.901Z,27.57
2018-08-19T11:08:51.884Z,27.69
2018-08-19T11:09:51.875Z,27.22
2018-08-19T11:10:51.869Z,27.43
2018-08-19T11:11:51.864Z,28.04
2018-08-19T11:12:51.875Z,28.31
2018-08-19T11:13:51.853Z,28.68
2018-08-19T11:14:51.848Z,28.93
2018-08-19T11:15:51.843Z,28.76
2018-08-19T11:16:51.837Z,28.37
2018-08-19T11:17:53.145Z,28.46
2018-08-19T11:18:51.847Z,27.96
2018-08-19T11:19:51.829Z,27.44
2018-08-19T11:20:51.846Z,27.69
2018-08-19T11:21:51.819Z,27.92
2018-08-19T11:22:51.816Z,27.06
2018-08-19T11:23:51.826Z,26.72
2018-08-19T11:24:51.807Z,26.51
2018-08-19T11:25:51.867Z,25.92
2018-08-19T11:26:51.807Z,25.97
2018-08-19T11:27:51.794Z,26.07
2018-08-19T11:28:51.802Z,26.20
2018-08-19T11:29:51.782Z,26.55
2018-08-19T11:30:51.784Z,26.69
2018-08-19T11:31:51.775Z,26.75
2018-08-19T11:32:51.767Z,26.30
2018-08-19T11:33:51.807Z,26.70
2018-08-19T11:34:51.775Z,27.00
2018-08-19T11:35:51.754Z,26.57
2018-08-19T11:36:51.748Z,26.39
2018-08-19T11:37:51.754Z,26.48
2018-08-19T11:38:51.755Z,26.37
2018-08-19T11:39:51.733Z,26.18
2018-08-19T11:40:51.733Z,26.32
2018-08-19T11:41:51.742Z,26.06
2018-08-19T11:42:51.720Z,26.47
2018-08-19T11:43:51.728Z,27.10
2018-08-19T11:44:51.728Z,27.39
2018-08-19T11:45:51.722Z,26.52
2018-08-19T11:46:51.718Z,26.50
2018-08-19T11:47:51.700Z,26.50
2018-08-19T11:48:51.733Z,26.70
2018-08-19T11:49:51.691Z,26.88
2018-08-19T11:50:51.678Z,27.07
2018-08-19T11:51:51.697Z,27.24
2018-08-19T11:52:51.671Z,27.51
2018-08-19T11:53:51.667Z,28.11
2018-08-19T11:54:51.663Z,28.58
2018-08-19T11:55:51.661Z,28.98
2018-08-19T11:56:51.656Z,29.06
2018-08-19T11:57:51.666Z,28.98
2018-08-19T11:58:51.648Z,28.96
2018-08-19T11:59:51.648Z,27.84
2018-08-19T12:00:51.637Z,27.04
2018-08-19T12:01:51.635Z,26.75
2018-08-19T12:02:51.706Z,26.50
2018-08-19T12:03:51.640Z,26.54
2018-08-19T12:04:51.618Z,26.94
2018-08-19T12:05:51.620Z,27.74
2018-08-19T12:06:51.625Z,28.04
2018-08-19T12:07:51.613Z,28.46
2018-08-19T12:08:51.628Z,28.73
2018-08-19T12:09:51.602Z,29.05
2018-08-19T12:10:51.602Z,29.21
2018-08-19T12:11:51.594Z,29.33
2018-08-19T12:12:51.596Z,29.15
2018-08-19T12:13:51.601Z,28.46
2018-08-19T12:14:51.609Z,28.37
2018-08-19T12:15:51.590Z,28.24
2018-08-19T12:16:51.616Z,28.46
2018-08-19T12:17:51.577Z,28.33
2018-08-19T12:18:51.574Z,27.70
2018-08-19T12:19:51.588Z,27.14
2018-08-19T12:20:51.568Z,27.25
2018-08-19T12:21:51.562Z,27.79
2018-08-19T12:22:51.580Z,27.87
2018-08-19T12:23:51.556Z,28.11
2018-08-19T12:24:51.574Z,28.62
2018-08-19T12:25:51.577Z,29.15
2018-08-19T12:26:51.551Z,29.42
2018-08-19T12:27:51.637Z,29.65
2018-08-19T12:28:51.543Z,29.60
2018-08-19T12:29:51.562Z,29.85
2018-08-19T12:30:51.538Z,30.27
2018-08-19T12:31:51.536Z,30.05
2018-08-19T12:32:51.533Z,29.52
2018-08-19T12:33:51.534Z,28.78
2018-08-19T12:34:51.541Z,27.84
2018-08-19T12:35:51.538Z,27.87
2018-08-19T12:36:51.519Z,28.27
2018-08-19T12:37:51.513Z,28.61
2018-08-19T12:38:51.517Z,29.04
2018-08-19T12:39:51.523Z,29.37
2018-08-19T12:40:51.572Z,29.65
2018-08-19T12:41:51.510Z,29.68
2018-08-19T12:42:51.508Z,29.48
2018-08-19T12:43:51.506Z,29.26
2018-08-19T12:44:51.539Z,29.04
2018-08-19T12:45:51.513Z,28.24
2018-08-19T12:46:51.498Z,27.81
2018-08-19T12:47:51.500Z,27.66
2018-08-19T12:48:51.492Z,27.57
2018-08-19T12:49:51.490Z,27.60
2018-08-19T12:50:51.502Z,27.74
2018-08-19T12:51:51.483Z,28.18